El Dorado, Georgia
Current Conditions -  °F | °C
As of 7:15 AM on Saturday 20 Dec 2014 (Local Time) from KTMA Reporting Station
Moderate Rain Moderate Rain  
Wind Chill: 49°   Ceiling: 7500
Heat Index: 49°   Visibility: 7mi
Dew Point: 48°   Wind: 0mph
Humidity: 97%   Direction: NA
Pressure: 30.13"   Gusts: NA
Location:  31.2647°N, 83.4365°W
Report Text: KTMA 201215Z AUTO 00000KT 7SM RA OVC075 10/09 A3013 RMK AO2 T00950090
Loading
Personal Weather Stations






























Interactive Weather Map New forecast layout! Learn more

10-Day Weather Forecast

Advertisements
Track Severe Weather on mobile